Time;durP1;ratioP1;P1;durP2;ratioP2;P2;SDS_P1;SDS_P2;PMS_P1;PMS_P2;Temp;Humidity;BMP_temperature;BMP_pressure;BME280_temperature;BME280_humidity;BME280_pressure;Samples;Min_cycle;Max_cycle;Signal;HPM_P1;HPM_P2
2022/08/24 00:00:29;;;;;;;6.35;4.80;;;;;;;19.15;70.05;99448.11;1686932;85;21510;-65
2022/08/24 00:02:55;;;;;;;10.15;5.12;;;;;;;19.10;70.30;99452.05;1686674;85;21046;-65
2022/08/24 00:05:22;;;;;;;11.28;5.17;;;;;;;19.07;70.54;99453.60;1686882;85;21918;-65
2022/08/24 00:07:50;;;;;;;8.50;5.12;;;;;;;19.02;70.76;99459.70;1686662;85;21057;-66
2022/08/24 00:10:19;;;;;;;6.45;5.20;;;;;;;18.98;70.89;99459.59;1686631;85;21030;-65
2022/08/24 00:12:46;;;;;;;9.58;5.60;;;;;;;18.93;71.15;99455.98;1686699;85;21569;-65
2022/08/24 00:15:14;;;;;;;8.40;4.47;;;;;;;18.88;71.33;99462.91;1686744;85;21157;-65
2022/08/24 00:17:42;;;;;;;10.63;5.05;;;;;;;18.85;71.93;99458.34;1686666;85;21261;-65
2022/08/24 00:20:10;;;;;;;8.55;5.42;;;;;;;18.81;72.11;99462.16;1686521;85;21462;-66
2022/08/24 00:22:37;;;;;;;8.13;5.67;;;;;;;18.78;73.20;99461.94;1686657;85;21470;-66
2022/08/24 00:25:06;;;;;;;9.80;5.62;;;;;;;18.76;74.80;99464.33;1686615;85;21111;-65
2022/08/24 00:27:32;;;;;;;7.00;5.65;;;;;;;18.73;76.83;99465.88;1686651;85;20990;-65
2022/08/24 00:29:59;;;;;;;8.40;5.00;;;;;;;18.67;78.95;99467.16;1686879;85;21965;-65
2022/08/24 00:32:28;;;;;;;9.58;4.40;;;;;;;18.63;80.20;99468.34;1686634;85;21026;-66
2022/08/24 00:34:57;;;;;;;10.70;5.08;;;;;;;18.58;81.64;99463.88;1686598;85;21034;-66
2022/08/24 00:37:24;;;;;;;9.48;5.05;;;;;;;18.57;82.88;99466.99;1686606;85;21045;-66
2022/08/24 00:39:50;;;;;;;8.18;5.12;;;;;;;18.54;83.62;99459.79;1687374;83;21501;-66
2022/08/24 00:42:17;;;;;;;15.65;5.67;;;;;;;18.51;84.23;99466.13;1689169;85;21137;-66
2022/08/24 00:44:46;;;;;;;11.57;6.12;;;;;;;18.50;84.67;99468.39;1689043;85;21553;-65
2022/08/24 00:47:21;;;;;;;7.50;4.70;;;;;;;18.47;84.99;99460.71;1689103;85;21121;-66
2022/08/24 00:50:02;;;;;;;6.53;5.28;;;;;;;18.44;85.53;99459.61;1686006;85;21026;-66
2022/08/24 00:52:34;;;;;;;9.00;5.75;;;;;;;18.38;85.97;99467.15;1689272;85;21030;-65
2022/08/24 00:55:11;;;;;;;11.85;5.12;;;;;;;18.32;85.62;99468.91;1689215;85;21190;-65
2022/08/24 00:57:40;;;;;;;9.08;5.42;;;;;;;18.25;83.99;99470.66;1687375;85;20973;-65
2022/08/24 01:00:13;;;;;;;5.97;5.22;;;;;;;18.20;82.20;99470.15;1689118;85;21010;-65
2022/08/24 01:02:42;;;;;;;8.03;5.25;;;;;;;18.17;81.64;99472.19;1688715;85;28214;-65
2022/08/24 01:05:10;;;;;;;7.10;5.25;;;;;;;18.11;80.97;99470.83;1689291;85;20998;-65
2022/08/24 01:07:38;;;;;;;11.45;5.67;;;;;;;18.06;80.58;99474.27;1689083;85;21236;-65
2022/08/24 01:10:10;;;;;;;8.23;4.58;;;;;;;18.02;80.61;99478.53;1689088;85;21057;-66
2022/08/24 01:12:40;;;;;;;5.70;4.95;;;;;;;17.98;80.67;99480.58;1689171;85;21050;-64
2022/08/24 01:15:09;;;;;;;6.72;5.42;;;;;;;17.94;80.72;99476.47;1663752;85;21030;-64
2022/08/24 01:20:25;;;;;;;6.97;5.15;;;;;;;17.89;81.37;99472.00;1689124;83;21161;-64
2022/08/24 01:23:30;;;;;;;9.15;5.17;;;;;;;17.86;81.60;99474.85;1688943;85;21049;-65
2022/08/24 01:25:56;;;;;;;8.35;4.92;;;;;;;17.82;82.06;99476.85;1631257;87;21049;-64
2022/08/24 01:28:23;;;;;;;8.43;4.65;;;;;;;17.77;83.57;99478.99;1631282;88;21617;-65
2022/08/24 01:30:50;;;;;;;9.10;5.58;;;;;;;17.73;84.98;99478.84;1651105;85;20982;-65
2022/08/24 01:33:26;;;;;;;10.68;5.53;;;;;;;17.70;86.42;99480.84;1689155;85;21138;-64
2022/08/24 01:36:10;;;;;;;7.53;5.70;;;;;;;17.67;87.79;99475.79;1688987;85;21029;-64
2022/08/24 01:38:37;;;;;;;11.00;5.00;;;;;;;17.66;89.42;99488.57;1686796;85;21074;-64
2022/08/24 01:41:04;;;;;;;7.12;5.22;;;;;;;17.62;90.73;99481.33;1688995;83;21093;-65
2022/08/24 01:43:31;;;;;;;7.53;5.15;;;;;;;17.59;91.89;99480.23;1689051;85;21117;-64
2022/08/24 01:46:37;;;;;;;7.03;5.08;;;;;;;17.57;92.75;99490.05;1689014;85;21478;-64
2022/08/24 01:49:04;;;;;;;9.55;5.47;;;;;;;17.54;92.70;99487.62;1689108;85;21037;-64
2022/08/24 01:51:32;;;;;;;7.87;5.97;;;;;;;17.50;93.45;99493.56;1689287;85;21422;-65
2022/08/24 01:54:01;;;;;;;7.75;5.12;;;;;;;17.48;93.96;99497.24;1689282;85;21569;-65
2022/08/24 01:56:30;;;;;;;8.93;5.58;;;;;;;17.45;94.73;99496.13;1689192;85;21431;-64
2022/08/24 01:58:57;;;;;;;8.45;5.42;;;;;;;17.39;95.14;99494.77;1689132;85;21134;-65
2022/08/24 02:01:26;;;;;;;9.03;5.50;;;;;;;17.36;95.79;99502.05;1688965;85;21061;-65
2022/08/24 02:03:53;;;;;;;10.32;5.85;;;;;;;17.31;96.50;99506.30;1689104;85;21050;-65
2022/08/24 02:06:20;;;;;;;6.10;4.97;;;;;;;17.27;97.03;99507.92;1688996;85;21009;-65
2022/08/24 02:08:47;;;;;;;8.08;4.95;;;;;;;17.22;98.07;99507.75;1689039;85;20967;-65
2022/08/24 02:11:16;;;;;;;9.83;5.33;;;;;;;17.18;99.00;99510.25;1689031;85;21145;-65
2022/08/24 02:13:42;;;;;;;10.03;5.70;;;;;;;17.17;99.65;99512.97;1689139;85;21462;-65
2022/08/24 02:16:09;;;;;;;11.40;6.50;;;;;;;17.15;100.00;99506.51;1689075;85;21001;-65
2022/08/24 02:18:39;;;;;;;7.50;5.72;;;;;;;17.15;100.00;99506.98;1689279;84;21558;-65
2022/08/24 02:21:08;;;;;;;6.78;5.10;;;;;;;17.13;99.78;99508.87;1689089;83;21086;-65
2022/08/24 02:23:36;;;;;;;7.35;5.35;;;;;;;17.09;99.09;99511.33;1688992;85;21490;-65
2022/08/24 02:26:05;;;;;;;10.30;5.45;;;;;;;17.05;98.28;99510.69;1689125;85;21608;-65
2022/08/24 02:28:32;;;;;;;7.55;5.83;;;;;;;17.01;97.36;99513.61;1689114;85;20974;-64
2022/08/24 02:31:00;;;;;;;9.38;6.15;;;;;;;16.95;96.59;99510.95;1663726;85;21002;-65
2022/08/24 02:33:26;;;;;;;8.50;5.87;;;;;;;16.90;96.15;99513.03;1688986;85;21081;-65
2022/08/24 02:35:53;;;;;;;10.10;5.50;;;;;;;16.85;95.58;99512.48;1689323;85;21530;-64
2022/08/24 02:38:20;;;;;;;12.03;5.92;;;;;;;16.79;95.39;99511.57;1689131;85;21435;-65
2022/08/24 02:40:47;;;;;;;10.50;5.70;;;;;;;16.75;95.26;99508.80;1688887;83;21062;-65
2022/08/24 02:43:14;;;;;;;10.72;6.33;;;;;;;16.69;94.80;99519.23;1689087;85;21097;-65
2022/08/24 02:45:43;;;;;;;10.65;5.60;;;;;;;16.64;94.67;99518.69;1688995;85;20993;-65
2022/08/24 02:48:30;;;;;;;12.63;6.28;;;;;;;16.61;94.77;99523.26;1689006;85;21140;-65
2022/08/24 02:50:57;;;;;;;11.80;6.03;;;;;;;16.58;95.39;99524.33;1755638;81;20941;-65
2022/08/24 02:53:23;;;;;;;12.20;5.92;;;;;;;16.57;96.13;99521.80;1755698;81;20977;-65
2022/08/24 02:55:51;;;;;;;11.63;6.30;;;;;;;16.54;96.45;99520.21;1755549;81;20966;-65
2022/08/24 02:58:17;;;;;;;7.03;5.42;;;;;;;16.53;96.73;99520.68;1755772;81;21441;-65
2022/08/24 03:00:46;;;;;;;8.63;5.78;;;;;;;16.53;96.77;99526.41;1755667;81;21146;-65
2022/08/24 03:03:13;;;;;;;9.15;5.87;;;;;;;16.51;96.84;99519.94;1755498;81;21060;-65
2022/08/24 03:05:41;;;;;;;7.25;5.87;;;;;;;16.49;97.07;99527.06;1755564;81;20958;-65
2022/08/24 03:08:08;;;;;;;10.82;6.33;;;;;;;16.48;97.20;99529.32;1719345;83;21041;-65
2022/08/24 03:10:36;;;;;;;9.55;5.72;;;;;;;16.48;97.11;99531.10;1689161;85;21014;-65
2022/08/24 03:13:03;;;;;;;13.18;5.78;;;;;;;16.43;97.15;99526.61;1719308;83;21151;-66
2022/08/24 03:15:31;;;;;;;8.18;5.80;;;;;;;16.41;96.99;99539.83;1689118;85;21014;-65
2022/08/24 03:17:58;;;;;;;9.70;5.70;;;;;;;16.38;96.87;99530.02;1719553;83;20946;-65
2022/08/24 03:20:26;;;;;;;7.90;6.00;;;;;;;16.37;96.85;99533.12;1690389;84;21017;-66
2022/08/24 03:22:52;;;;;;;9.83;5.83;;;;;;;16.40;96.87;99538.61;1705835;84;21064;-65
2022/08/24 03:25:23;;;;;;;7.22;5.70;;;;;;;16.43;96.98;99539.73;1736608;82;21957;-65
2022/08/24 03:27:51;;;;;;;13.65;6.20;;;;;;;16.51;96.70;99542.25;1729290;83;21084;-65
2022/08/24 03:30:18;;;;;;;9.00;5.90;;;;;;;16.62;96.21;99542.02;1749414;82;20962;-65
2022/08/24 03:32:45;;;;;;;8.90;6.03;;;;;;;16.71;95.58;99533.11;1736638;82;21013;-65
2022/08/24 03:35:13;;;;;;;14.95;5.40;;;;;;;16.85;94.94;99530.88;1736740;82;21040;-65
2022/08/24 03:37:40;;;;;;;10.70;6.33;;;;;;;17.01;93.98;99532.85;1705695;84;22238;-65
2022/08/24 03:40:09;;;;;;;8.78;5.78;;;;;;;17.19;92.25;99536.87;1736644;82;21464;-65
2022/08/24 03:42:36;;;;;;;8.18;5.97;;;;;;;17.33;90.79;99532.02;1729447;83;21039;-65
2022/08/24 03:45:04;;;;;;;8.03;5.60;;;;;;;17.48;89.60;99530.11;1705814;84;21041;-65
2022/08/24 03:47:33;;;;;;;12.73;6.05;;;;;;;17.66;88.35;99531.50;1736762;82;21040;-65
2022/08/24 03:50:00;;;;;;;5.87;5.25;;;;;;;17.85;87.33;99528.42;1724855;83;21106;-65
2022/08/24 03:52:27;;;;;;;8.20;5.30;;;;;;;18.07;86.43;99529.90;1721043;83;21479;-66
2022/08/24 03:54:54;;;;;;;6.78;6.08;;;;;;;18.31;85.30;99527.78;1721001;83;21009;-66
2022/08/24 03:57:20;;;;;;;7.70;5.67;;;;;;;18.54;83.96;99524.32;1720960;83;20962;-65
2022/08/24 03:59:48;;;;;;;11.03;5.80;;;;;;;18.80;82.46;99531.62;1721121;83;20946;-66
2022/08/24 04:02:14;;;;;;;12.30;5.40;;;;;;;19.07;80.92;99534.84;1720983;83;21506;-66
2022/08/24 04:04:41;;;;;;;6.20;5.37;;;;;;;19.32;79.82;99530.36;1720955;83;20950;-66
2022/08/24 04:07:08;;;;;;;8.90;5.33;;;;;;;19.58;78.46;99539.27;1721049;83;20954;-66
2022/08/24 04:09:35;;;;;;;8.18;5.28;;;;;;;19.87;76.76;99539.66;1720976;83;20991;-65
2022/08/24 04:12:04;;;;;;;10.35;5.53;;;;;;;20.16;75.39;99536.52;1721180;83;20998;-65
2022/08/24 04:14:31;;;;;;;8.83;5.78;;;;;;;20.44;73.85;99535.99;1721042;83;21144;-65
2022/08/24 04:17:00;;;;;;;6.92;5.35;;;;;;;20.68;72.23;99539.77;1720731;83;20958;-65
2022/08/24 04:19:29;;;;;;;7.92;5.67;;;;;;;20.89;71.00;99542.45;1720571;83;20995;-66
2022/08/24 04:21:58;;;;;;;8.30;5.60;;;;;;;21.07;70.20;99540.07;1720946;83;21017;-66
2022/08/24 04:24:26;;;;;;;10.72;5.60;;;;;;;21.30;69.06;99540.34;1721050;83;21073;-66
2022/08/24 04:26:53;;;;;;;8.20;5.75;;;;;;;21.50;68.48;99542.13;1720960;83;21132;-66
2022/08/24 04:29:20;;;;;;;6.67;5.00;;;;;;;21.64;67.42;99544.91;1720945;83;20958;-66
2022/08/24 04:31:48;;;;;;;11.28;5.67;;;;;;;21.78;67.47;99539.77;1720211;83;21418;-66
2022/08/24 04:34:15;;;;;;;10.80;5.37;;;;;;;21.91;66.66;99539.04;1720936;83;21002;-65
2022/08/24 04:36:44;;;;;;;9.15;5.78;;;;;;;22.12;66.11;99542.98;1721088;83;21438;-66
2022/08/24 04:39:10;;;;;;;7.78;5.50;;;;;;;22.42;64.90;99548.68;1721064;83;22036;-65
2022/08/24 04:41:56;;;;;;;8.88;5.50;;;;;;;22.66;64.00;99549.14;1703291;83;21053;-64
2022/08/24 04:44:23;;;;;;;8.03;5.58;;;;;;;22.99;62.52;99551.40;1721102;83;21029;-64
2022/08/24 04:46:50;;;;;;;9.25;6.12;;;;;;;23.23;61.54;99556.76;1721074;83;21443;-64
2022/08/24 04:49:16;;;;;;;6.22;5.20;;;;;;;23.42;60.96;99551.41;1719962;83;20994;-65
2022/08/24 04:51:45;;;;;;;7.50;5.87;;;;;;;23.60;60.20;99555.03;1713319;83;21471;-65
2022/08/24 04:54:11;;;;;;;8.65;5.58;;;;;;;23.76;60.12;99554.44;1686800;83;20998;-65
2022/08/24 04:56:38;;;;;;;8.28;5.35;;;;;;;23.95;59.62;99561.01;1733241;82;20965;-65
2022/08/24 04:59:05;;;;;;;9.48;5.47;;;;;;;24.16;58.52;99561.27;1733087;82;21037;-65
2022/08/24 05:01:33;;;;;;;5.67;5.12;;;;;;;24.24;58.09;99557.38;1733161;82;20965;-65
2022/08/24 05:04:03;;;;;;;7.80;5.35;;;;;;;24.22;58.11;99562.81;1733220;82;22600;-65
2022/08/24 05:06:31;;;;;;;8.58;5.03;;;;;;;24.34;57.49;99559.52;1733072;82;21047;-64
2022/08/24 05:08:59;;;;;;;6.67;5.10;;;;;;;24.45;57.24;99553.97;1733205;82;21002;-65
2022/08/24 05:11:27;;;;;;;7.72;5.35;;;;;;;24.55;56.99;99555.25;1733146;82;21045;-65
2022/08/24 05:13:55;;;;;;;7.70;5.22;;;;;;;24.63;57.53;99547.34;1733163;82;21009;-64
2022/08/24 05:16:22;;;;;;;11.68;5.80;;;;;;;24.67;56.68;99546.89;1733193;82;21263;-65
2022/08/24 05:18:49;;;;;;;6.67;5.05;;;;;;;24.65;57.14;99550.19;1733123;82;20965;-64
2022/08/24 05:21:20;;;;;;;8.03;5.05;;;;;;;24.66;57.85;99549.70;1733122;82;21026;-64
2022/08/24 05:23:47;;;;;;;9.40;5.35;;;;;;;24.69;57.01;99547.58;1733234;82;21034;-64
2022/08/24 05:26:19;;;;;;;11.20;5.80;;;;;;;24.66;57.45;99553.20;1733077;82;21021;-65
2022/08/24 05:28:46;;;;;;;8.33;5.25;;;;;;;24.71;56.83;99546.94;1732136;82;21085;-65
2022/08/24 05:31:19;;;;;;;7.15;5.33;;;;;;;24.75;56.66;99545.31;1733100;82;21029;-64
2022/08/24 05:33:48;;;;;;;8.23;5.15;;;;;;;24.71;56.60;99544.28;1733419;82;34073;-65
2022/08/24 05:36:27;;;;;;;7.55;4.25;;;;;;;24.65;57.09;99541.38;1733369;82;21485;-64
2022/08/24 05:38:56;;;;;;;7.12;4.58;;;;;;;24.63;57.13;99534.04;1733171;82;20997;-64
2022/08/24 05:41:23;;;;;;;8.18;5.42;;;;;;;24.62;57.00;99533.70;1733483;82;21171;-65
2022/08/24 05:43:52;;;;;;;6.42;5.10;;;;;;;24.55;57.25;99532.65;1732300;82;20958;-65
2022/08/24 05:46:19;;;;;;;6.87;4.45;;;;;;;24.45;57.36;99525.22;1733102;82;20938;-65
2022/08/24 05:48:47;;;;;;;5.72;4.60;;;;;;;24.37;57.13;99536.63;1733069;82;21060;-66
2022/08/24 05:51:24;;;;;;;5.58;4.10;;;;;;;24.28;56.98;99533.02;1752750;81;20973;-65
2022/08/24 05:53:53;;;;;;;6.53;4.00;;;;;;;24.23;56.39;99529.10;1756535;81;21162;-65
2022/08/24 05:56:20;;;;;;;5.20;4.30;;;;;;;24.17;54.66;99529.72;1756884;81;20966;-65
2022/08/24 05:58:47;;;;;;;6.40;4.55;;;;;;;24.08;54.77;99534.58;1757033;81;21041;-65
2022/08/24 06:01:21;;;;;;;6.47;4.53;;;;;;;24.02;55.43;99543.47;1756923;81;21005;-65
2022/08/24 06:03:48;;;;;;;9.23;4.20;;;;;;;24.00;54.56;99544.60;1756949;81;20961;-65
2022/08/24 06:06:17;;;;;;;9.05;4.30;;;;;;;23.96;54.45;99546.74;1756957;81;21259;-65
2022/08/24 06:08:47;;;;;;;12.47;4.67;;;;;;;23.94;54.28;99540.73;1756866;81;21045;-65
2022/08/24 06:11:28;;;;;;;9.40;4.37;;;;;;;23.97;53.63;99547.58;1756961;81;21053;-65
2022/08/24 06:13:59;;;;;;;12.35;4.45;;;;;;;23.98;54.00;99546.08;1757287;81;21002;-65
2022/08/24 06:16:28;;;;;;;;;;;;;;;24.01;53.55;99547.11;1759588;81;21041;-65
2022/08/24 06:18:54;;;;;;;6.33;4.10;;;;;;;24.06;52.99;99545.35;1756929;81;22062;-65
2022/08/24 06:21:24;;;;;;;8.65;4.70;;;;;;;24.09;53.21;99550.38;1756809;81;21399;-65
2022/08/24 06:23:51;;;;;;;9.50;4.55;;;;;;;24.16;53.25;99554.13;1745624;80;20956;-65
2022/08/24 06:29:06;;;;;;;8.43;4.83;;;;;;;24.26;52.49;99556.25;1722496;83;21015;-66
2022/08/24 06:31:40;;;;;;;11.40;4.95;;;;;;;24.33;52.43;99561.33;1722358;83;21131;-65
2022/08/24 06:34:13;;;;;;;12.55;4.62;;;;;;;24.42;52.80;99558.25;1722385;83;20922;-65
2022/08/24 06:36:40;;;;;;;9.35;4.40;;;;;;;24.52;52.04;99552.89;1722177;83;21028;-65
2022/08/24 06:39:08;;;;;;;12.60;4.60;;;;;;;24.59;51.47;99555.27;1722164;83;21083;-65
2022/08/24 06:41:37;;;;;;;13.22;4.80;;;;;;;24.65;51.64;99554.67;1699495;83;21161;-65
2022/08/24 06:44:06;;;;;;;18.00;4.40;;;;;;;24.73;50.75;99553.44;1721924;83;21172;-65
2022/08/24 06:46:35;;;;;;;13.62;4.40;;;;;;;24.83;50.21;99559.50;1719740;83;20987;-65
2022/08/24 06:49:02;;;;;;;22.27;5.30;;;;;;;24.92;49.73;99557.27;1722114;82;20932;-65
2022/08/24 06:51:30;;;;;;;17.73;4.30;;;;;;;25.00;49.33;99555.19;1725021;83;20977;-65
2022/08/24 06:53:57;;;;;;;19.50;5.15;;;;;;;25.07;49.59;99554.92;1725996;83;21112;-65
2022/08/24 06:56:24;;;;;;;25.05;5.20;;;;;;;25.18;49.24;99548.54;1725813;83;21414;-64
2022/08/24 06:58:51;;;;;;;20.23;5.50;;;;;;;25.25;48.88;99550.91;1725900;83;20997;-66
2022/08/24 07:01:22;;;;;;;23.95;7.30;;;;;;;25.34;48.45;99550.83;1725945;83;21051;-65
2022/08/24 07:03:49;;;;;;;24.18;6.08;;;;;;;25.46;47.66;99551.88;1697364;83;21520;-65
2022/08/24 07:06:18;;;;;;;23.40;6.17;;;;;;;25.55;47.44;99549.63;1660741;83;21056;-66
2022/08/24 07:08:45;;;;;;;27.58;5.58;;;;;;;25.63;46.76;99546.53;1725942;83;21146;-65
2022/08/24 07:11:16;;;;;;;29.82;6.10;;;;;;;25.72;46.62;99546.09;1726074;83;21072;-65
2022/08/24 07:13:48;;;;;;;39.05;6.80;;;;;;;25.80;46.10;99553.27;1726122;83;20985;-65
2022/08/24 07:16:16;;;;;;;29.87;6.33;;;;;;;25.87;45.63;99554.31;1726105;83;21046;-65
2022/08/24 07:18:43;;;;;;;43.60;7.70;;;;;;;25.94;46.04;99550.03;1697429;83;21064;-66
2022/08/24 07:21:11;;;;;;;41.18;8.83;;;;;;;26.01;45.07;99548.38;1725881;83;21129;-65
2022/08/24 07:23:42;;;;;;;43.42;6.95;;;;;;;26.10;44.32;99552.77;1725533;83;20935;-65
2022/08/24 07:26:12;;;;;;;41.05;7.35;;;;;;;26.20;44.17;99548.12;1726215;83;21009;-66
2022/08/24 07:28:39;;;;;;;41.95;7.75;;;;;;;26.32;44.04;99554.04;1697490;83;21552;-65
2022/08/24 07:31:08;;;;;;;40.17;7.92;;;;;;;26.40;42.60;99542.88;1725759;83;21525;-65
2022/08/24 07:33:37;;;;;;;38.95;7.53;;;;;;;26.47;41.21;99549.74;1725476;83;21256;-65
2022/08/24 07:36:05;;;;;;;54.23;9.88;;;;;;;26.49;41.54;99543.75;1726018;83;20969;-65
2022/08/24 07:38:32;;;;;;;47.75;8.75;;;;;;;26.55;41.90;99540.44;1726151;83;21025;-65
2022/08/24 07:41:00;;;;;;;43.73;7.72;;;;;;;26.66;41.45;99533.94;1726190;83;20969;-65
2022/08/24 07:43:28;;;;;;;50.80;7.45;;;;;;;26.76;41.92;99539.97;1726196;83;20950;-65
2022/08/24 07:45:55;;;;;;;42.80;7.90;;;;;;;26.86;41.50;99539.30;1726245;83;21312;-65
2022/08/24 07:48:21;;;;;;;55.78;8.45;;;;;;;26.93;41.41;99538.97;1726442;83;20966;-65
2022/08/24 07:50:49;;;;;;;49.63;9.13;;;;;;;27.02;40.68;99535.82;1726285;82;20972;-65
2022/08/24 07:53:16;;;;;;;47.27;7.37;;;;;;;27.12;40.40;99529.83;1726531;83;21032;-66
2022/08/24 07:55:55;;;;;;;55.88;8.65;;;;;;;27.19;39.05;99536.14;1726598;83;21562;-65
2022/08/24 07:58:23;;;;;;;49.65;7.35;;;;;;;27.26;39.03;99538.48;1726480;83;21174;-65
2022/08/24 08:00:50;;;;;;;45.25;7.87;;;;;;;27.33;38.99;99531.48;1726678;83;20952;-65
2022/08/24 08:03:17;;;;;;;50.03;8.25;;;;;;;27.42;38.66;99530.44;1726464;83;21073;-65
2022/08/24 08:05:45;;;;;;;46.00;7.80;;;;;;;27.50;39.13;99536.28;1726454;83;21053;-65
2022/08/24 08:08:12;;;;;;;39.15;6.65;;;;;;;27.57;38.71;99529.77;1726495;83;21390;-65
2022/08/24 08:10:39;;;;;;;46.95;6.75;;;;;;;27.61;38.45;99528.42;1726467;83;21134;-65
2022/08/24 08:13:07;;;;;;;40.12;7.50;;;;;;;27.66;38.54;99530.92;1726506;83;21074;-65
2022/08/24 08:15:33;;;;;;;41.08;7.22;;;;;;;27.71;37.82;99527.24;1726379;83;21011;-65
2022/08/24 08:18:05;;;;;;;42.65;7.22;;;;;;;27.78;38.08;99529.54;1726296;83;21024;-65
2022/08/24 08:20:34;;;;;;;35.95;7.25;;;;;;;27.88;38.58;99529.35;1726344;83;21007;-65
2022/08/24 08:25:50;;;;;;;33.95;6.72;;;;;;;28.09;38.26;99522.08;1718157;83;21004;-65
2022/08/24 08:28:18;;;;;;;32.50;6.35;;;;;;;28.20;38.73;99531.06;1725990;82;20984;-65
2022/08/24 08:30:45;;;;;;;38.90;7.37;;;;;;;28.26;38.47;99536.23;1726523;83;21035;-65
2022/08/24 08:33:13;;;;;;;34.33;6.83;;;;;;;28.32;37.93;99524.84;1726427;83;21011;-66
2022/08/24 08:35:43;;;;;;;30.68;5.22;;;;;;;28.39;37.76;99519.92;1726374;83;21292;-65
2022/08/24 08:38:11;;;;;;;26.45;5.40;;;;;;;28.49;38.16;99521.56;1726211;83;21071;-66
2022/08/24 08:41:12;;;;;;;35.52;5.72;;;;;;;28.55;35.69;99520.86;1726460;83;20980;-66
2022/08/24 08:44:00;;;;;;;31.20;5.40;;;;;;;28.58;35.65;99521.84;1726126;83;26474;-65
2022/08/24 08:46:48;;;;;;;29.52;5.72;;;;;;;28.62;35.12;99527.98;1726965;83;21000;-65
2022/08/24 08:50:12;;;;;;;20.72;4.33;;;;;;;28.69;34.55;99528.11;1726583;83;21186;-65
2022/08/24 08:53:15;;;;;;;25.45;5.50;;;;;;;28.78;33.08;99522.50;1726499;83;20968;-64
2022/08/24 08:56:05;;;;;;;16.70;5.08;;;;;;;28.84;32.96;99521.50;1722438;83;20944;-65
2022/08/24 08:59:02;;;;;;;28.12;5.87;;;;;;;28.92;33.48;99526.80;1726566;83;20960;-65
2022/08/24 09:02:09;;;;;;;25.92;5.08;;;;;;;29.00;33.78;99525.38;1660936;86;21053;-65
2022/08/24 09:05:02;;;;;;;35.48;5.00;;;;;;;29.11;35.05;99528.48;1725507;83;21104;-65
2022/08/24 09:08:00;;;;;;;18.00;4.55;;;;;;;29.20;34.93;99517.16;1687647;83;20948;-65
2022/08/24 09:10:53;;;;;;;16.60;3.95;;;;;;;29.27;35.04;99517.28;1696614;83;21417;-65
2022/08/24 09:13:54;;;;;;;22.40;4.25;;;;;;;29.31;33.33;99510.55;1726378;83;21397;-65
2022/08/24 09:17:05;;;;;;;10.65;4.03;;;;;;;29.29;33.12;99513.41;1725194;83;20980;-65
2022/08/24 09:19:58;;;;;;;13.48;3.40;;;;;;;29.31;31.77;99515.40;1658733;85;21178;-66
2022/08/24 09:22:25;;;;;;;28.47;6.53;;;;;;;29.38;31.79;99506.93;1726343;83;20992;-65
2022/08/24 09:25:07;;;;;;;20.12;3.65;;;;;;;29.51;31.87;99518.91;1726349;83;20944;-65
2022/08/24 09:28:01;;;;;;;15.23;3.90;;;;;;;29.60;31.76;99513.27;1726337;83;21471;-65
2022/08/24 09:31:05;;;;;;;25.12;4.33;;;;;;;29.70;31.57;99514.34;1726756;83;20928;-66
2022/08/24 09:33:44;;;;;;;13.72;3.65;;;;;;;29.75;32.77;99514.63;1726442;83;21128;-64
2022/08/24 09:36:24;;;;;;;15.10;3.58;;;;;;;29.78;32.07;99511.55;1696513;83;21126;-64
2022/08/24 09:39:05;;;;;;;14.15;3.10;;;;;;;29.82;31.23;99505.63;1725898;80;21433;-64
2022/08/24 09:41:51;;;;;;;23.15;3.50;;;;;;;29.87;31.12;99513.64;1782704;79;21478;-65
2022/08/24 09:45:00;;;;;;;11.22;3.00;;;;;;;29.93;30.85;99506.20;1760569;80;20962;-65
2022/08/24 09:48:02;;;;;;;12.95;2.83;;;;;;;29.93;28.02;99496.30;1789399;80;21772;-65
2022/08/24 09:54:02;;;;;;;9.48;2.40;;;;;;;29.90;27.94;99494.50;1642118;87;20990;-64
2022/08/24 09:56:52;;;;;;;13.80;3.02;;;;;;;29.97;28.11;99494.08;1603617;87;20982;-65
2022/08/24 09:59:40;;;;;;;7.10;2.58;;;;;;;30.01;28.29;99504.77;1642052;87;20989;-66
2022/08/24 10:02:31;;;;;;;15.80;3.22;;;;;;;30.01;28.14;99498.89;1641502;85;21274;-66
2022/08/24 10:05:43;;;;;;;6.80;2.30;;;;;;;30.03;27.72;99510.77;1612535;86;21450;-65
2022/08/24 10:08:34;;;;;;;12.33;3.00;;;;;;;30.01;27.03;99504.77;1637949;87;21046;-65
2022/08/24 10:11:28;;;;;;;14.63;2.20;;;;;;;29.99;25.35;99505.45;1600193;87;21557;-65
2022/08/24 10:14:30;;;;;;;10.28;2.60;;;;;;;30.00;25.44;99498.56;1642027;87;21015;-64
2022/08/24 10:17:41;;;;;;;10.20;2.22;;;;;;;30.05;26.31;99499.35;1642086;87;21270;-63
2022/08/24 10:20:25;;;;;;;6.37;2.35;;;;;;;30.15;25.83;99507.44;1674749;85;20971;-65
2022/08/24 10:23:12;;;;;;;8.53;2.62;;;;;;;30.21;25.80;99491.59;1615784;88;21048;-64
2022/08/24 10:26:24;;;;;;;10.75;2.47;;;;;;;30.26;26.20;99493.20;1615702;88;21042;-65
2022/08/24 10:29:19;;;;;;;12.00;2.90;;;;;;;30.30;25.89;99495.83;1615911;88;21099;-65
2022/08/24 10:32:37;;;;;;;17.15;3.22;;;;;;;30.34;26.97;99511.88;1615686;88;21251;-64
2022/08/24 10:35:29;;;;;;;14.10;2.40;;;;;;;30.38;26.44;99501.89;1615615;88;21092;-64
2022/08/24 10:41:01;;;;;;;6.97;3.35;;;;;;;30.50;24.40;99502.24;1600589;88;21088;-65
2022/08/24 10:43:38;;;;;;;18.55;3.00;;;;;;;30.55;24.76;99505.23;1615716;88;21008;-64
2022/08/24 10:46:37;;;;;;;9.85;2.35;;;;;;;30.60;24.96;99499.26;1615698;88;21232;-65
2022/08/24 10:49:36;;;;;;;12.85;2.77;;;;;;;30.65;25.08;99502.20;1615599;88;21110;-64
2022/08/24 10:52:49;;;;;;;10.80;2.50;;;;;;;30.68;24.74;99487.06;1614765;88;21051;-65
2022/08/24 10:55:24;;;;;;;11.78;2.30;;;;;;;30.69;23.84;99500.30;1597294;89;21530;-66
2022/08/24 10:58:11;;;;;;;6.72;2.30;;;;;;;30.71;22.50;99515.70;1642542;87;21125;-66
2022/08/24 11:00:39;;;;;;;11.00;2.10;;;;;;;30.68;22.68;99507.20;1630771;87;21159;-65
2022/08/24 11:03:21;;;;;;;8.95;2.17;;;;;;;30.64;22.42;99496.52;1612732;89;21459;-66
2022/08/24 11:05:50;;;;;;;11.88;1.90;;;;;;;30.65;22.90;99498.18;1637551;87;20995;-65
2022/08/24 11:08:28;;;;;;;10.80;2.30;;;;;;;30.67;22.97;99501.00;1642477;87;21049;-65
2022/08/24 11:11:10;;;;;;;7.87;1.80;;;;;;;30.68;23.28;99500.48;1628844;87;21031;-65
2022/08/24 11:13:51;;;;;;;8.30;2.02;;;;;;;30.71;23.38;99487.52;1637654;87;21120;-65
2022/08/24 11:16:26;;;;;;;;;;;;;;;30.72;22.09;99500.43;1626804;87;21462;-66
2022/08/24 11:18:54;;;;;;;;;;;;;;;30.75;22.26;99498.70;1608345;89;20138;-66
2022/08/24 11:21:32;;;;;;;8.53;1.62;;;;;;;30.75;22.23;99499.54;1612670;89;20717;-66
2022/08/24 11:24:04;;;;;;;3.33;1.50;;;;;;;30.76;21.08;99499.02;1586009;89;21189;-65
2022/08/24 11:26:30;;;;;;;5.45;1.70;;;;;;;30.75;21.09;99504.08;1612530;89;21111;-65
2022/08/24 11:29:02;;;;;;;5.40;1.62;;;;;;;30.75;21.37;99511.63;1631597;88;21131;-65
2022/08/24 11:31:39;;;;;;;6.90;5.17;;;;;;;30.75;20.64;99498.70;1585243;90;21049;-65
2022/08/24 11:34:09;;;;;;;7.90;2.15;;;;;;;30.73;20.23;99496.72;1642448;87;21469;-65
2022/08/24 11:36:38;;;;;;;3.75;1.40;;;;;;;30.71;19.96;99503.63;1630749;88;21003;-65
2022/08/24 11:39:30;;;;;;;5.97;2.10;;;;;;;30.69;20.36;99497.61;1612904;89;21175;-66
2022/08/24 11:42:28;;;;;;;4.72;1.70;;;;;;;30.69;20.65;99494.92;1597505;89;21521;-66
2022/08/24 11:45:18;;;;;;;5.65;1.52;;;;;;;30.71;21.21;99496.91;1623357;88;21030;-66
2022/08/24 11:48:17;;;;;;;6.40;1.65;;;;;;;30.76;21.81;99501.20;1584490;90;21201;-66
2022/08/24 11:51:23;;;;;;;4.85;1.60;;;;;;;30.78;20.48;99499.13;1586079;90;21109;-65
2022/08/24 11:54:30;;;;;;;6.03;1.72;;;;;;;30.74;20.12;99507.78;1612327;88;21294;-67
2022/08/24 11:57:06;;;;;;;2.62;1.40;;;;;;;30.69;20.68;99496.78;1628919;88;21035;-66
2022/08/24 11:59:58;;;;;;;5.70;1.50;;;;;;;30.66;20.81;99493.13;1637704;87;21042;-66
2022/08/24 12:02:42;;;;;;;6.85;1.65;;;;;;;30.66;20.84;99496.65;1642625;87;21061;-64
2022/08/24 12:05:29;;;;;;;5.15;1.22;;;;;;;30.67;20.10;99494.28;1612855;88;20990;-64
2022/08/24 12:08:27;;;;;;;5.78;1.42;;;;;;;30.68;20.56;99492.43;1614463;88;21269;-65
2022/08/24 12:11:39;;;;;;;7.62;1.80;;;;;;;30.69;20.79;99494.92;1612918;89;21051;-65
2022/08/24 12:14:26;;;;;;;4.45;1.42;;;;;;;30.71;21.10;99493.39;1597439;89;21006;-65
2022/08/24 12:17:25;;;;;;;7.75;1.32;;;;;;;30.76;20.93;99492.31;1628689;88;21051;-65